sensor_id;sensor_type;location;lat;lon;timestamp;P1;durP1;ratioP1;P2;durP2;ratioP2
11960;SDS011;6040;49.358;11.140;2023-02-23T00:02:12;5.23;;;3.60;;
11960;SDS011;6040;49.358;11.140;2023-02-23T00:04:39;5.47;;;3.37;;
11960;SDS011;6040;49.358;11.140;2023-02-23T00:07:06;4.57;;;3.40;;
11960;SDS011;6040;49.358;11.140;2023-02-23T00:09:33;4.87;;;3.80;;
11960;SDS011;6040;49.358;11.140;2023-02-23T00:12:00;4.27;;;3.53;;
11960;SDS011;6040;49.358;11.140;2023-02-23T00:14:32;5.10;;;4.20;;
11960;SDS011;6040;49.358;11.140;2023-02-23T00:17:01;4.60;;;3.83;;
11960;SDS011;6040;49.358;11.140;2023-02-23T00:19:29;5.30;;;3.77;;
11960;SDS011;6040;49.358;11.140;2023-02-23T00:21:57;6.67;;;4.07;;
11960;SDS011;6040;49.358;11.140;2023-02-23T00:24:25;9.07;;;4.07;;
11960;SDS011;6040;49.358;11.140;2023-02-23T00:26:52;4.97;;;4.00;;
11960;SDS011;6040;49.358;11.140;2023-02-23T00:29:20;6.13;;;3.73;;
11960;SDS011;6040;49.358;11.140;2023-02-23T00:31:49;8.17;;;4.20;;
11960;SDS011;6040;49.358;11.140;2023-02-23T00:34:17;7.37;;;4.43;;
11960;SDS011;6040;49.358;11.140;2023-02-23T00:36:48;5.50;;;4.00;;
11960;SDS011;6040;49.358;11.140;2023-02-23T00:39:15;5.60;;;4.13;;
11960;SDS011;6040;49.358;11.140;2023-02-23T00:41:45;6.83;;;4.27;;
11960;SDS011;6040;49.358;11.140;2023-02-23T00:44:12;5.50;;;4.13;;
11960;SDS011;6040;49.358;11.140;2023-02-23T00:46:40;5.13;;;3.93;;
11960;SDS011;6040;49.358;11.140;2023-02-23T00:49:08;5.77;;;3.83;;
11960;SDS011;6040;49.358;11.140;2023-02-23T00:51:37;8.00;;;4.47;;
11960;SDS011;6040;49.358;11.140;2023-02-23T00:54:05;6.43;;;4.13;;
11960;SDS011;6040;49.358;11.140;2023-02-23T00:56:33;5.33;;;4.00;;
11960;SDS011;6040;49.358;11.140;2023-02-23T00:59:00;5.60;;;4.03;;
11960;SDS011;6040;49.358;11.140;2023-02-23T01:01:27;4.60;;;3.70;;
11960;SDS011;6040;49.358;11.140;2023-02-23T01:03:54;5.20;;;3.83;;
11960;SDS011;6040;49.358;11.140;2023-02-23T01:06:21;5.93;;;4.10;;
11960;SDS011;6040;49.358;11.140;2023-02-23T01:08:48;7.77;;;3.90;;
11960;SDS011;6040;49.358;11.140;2023-02-23T01:11:22;6.70;;;3.93;;
11960;SDS011;6040;49.358;11.140;2023-02-23T01:13:52;4.07;;;3.37;;
11960;SDS011;6040;49.358;11.140;2023-02-23T01:16:21;5.70;;;3.77;;
11960;SDS011;6040;49.358;11.140;2023-02-23T01:18:52;5.20;;;3.70;;
11960;SDS011;6040;49.358;11.140;2023-02-23T01:21:20;4.37;;;3.50;;
11960;SDS011;6040;49.358;11.140;2023-02-23T01:23:50;6.07;;;4.63;;
11960;SDS011;6040;49.358;11.140;2023-02-23T01:26:18;8.33;;;5.93;;
11960;SDS011;6040;49.358;11.140;2023-02-23T01:28:51;10.20;;;6.63;;
11960;SDS011;6040;49.358;11.140;2023-02-23T01:31:19;8.97;;;6.73;;
11960;SDS011;6040;49.358;11.140;2023-02-23T01:33:51;9.13;;;6.10;;
11960;SDS011;6040;49.358;11.140;2023-02-23T01:36:18;8.63;;;6.57;;
11960;SDS011;6040;49.358;11.140;2023-02-23T01:38:45;10.57;;;6.97;;
11960;SDS011;6040;49.358;11.140;2023-02-23T01:41:13;9.73;;;6.27;;
11960;SDS011;6040;49.358;11.140;2023-02-23T01:43:55;7.77;;;5.33;;
11960;SDS011;6040;49.358;11.140;2023-02-23T01:46:23;7.67;;;5.60;;
11960;SDS011;6040;49.358;11.140;2023-02-23T01:48:49;6.37;;;5.03;;
11960;SDS011;6040;49.358;11.140;2023-02-23T01:51:20;6.83;;;5.20;;
11960;SDS011;6040;49.358;11.140;2023-02-23T01:53:51;7.83;;;5.40;;
11960;SDS011;6040;49.358;11.140;2023-02-23T01:56:23;6.93;;;4.87;;
11960;SDS011;6040;49.358;11.140;2023-02-23T01:58:54;7.00;;;4.93;;
11960;SDS011;6040;49.358;11.140;2023-02-23T02:01:24;6.23;;;5.13;;
11960;SDS011;6040;49.358;11.140;2023-02-23T02:03:53;6.97;;;4.97;;
11960;SDS011;6040;49.358;11.140;2023-02-23T02:06:23;6.67;;;4.83;;
11960;SDS011;6040;49.358;11.140;2023-02-23T02:08:53;7.37;;;4.43;;
11960;SDS011;6040;49.358;11.140;2023-02-23T02:11:22;5.47;;;4.90;;
11960;SDS011;6040;49.358;11.140;2023-02-23T02:14:02;7.33;;;5.30;;
11960;SDS011;6040;49.358;11.140;2023-02-23T02:22:36;8.30;;;5.87;;
11960;SDS011;6040;49.358;11.140;2023-02-23T02:28:27;8.00;;;5.70;;
11960;SDS011;6040;49.358;11.140;2023-02-23T02:31:13;10.03;;;6.20;;
11960;SDS011;6040;49.358;11.140;2023-02-23T02:34:30;8.83;;;5.60;;
11960;SDS011;6040;49.358;11.140;2023-02-23T02:37:18;8.40;;;5.73;;
11960;SDS011;6040;49.358;11.140;2023-02-23T02:40:10;8.27;;;4.97;;
11960;SDS011;6040;49.358;11.140;2023-02-23T02:42:49;7.60;;;4.93;;
11960;SDS011;6040;49.358;11.140;2023-02-23T02:45:24;7.97;;;4.67;;
11960;SDS011;6040;49.358;11.140;2023-02-23T02:47:57;6.07;;;4.17;;
11960;SDS011;6040;49.358;11.140;2023-02-23T02:50:34;6.60;;;4.60;;
11960;SDS011;6040;49.358;11.140;2023-02-23T02:53:08;7.13;;;3.93;;
11960;SDS011;6040;49.358;11.140;2023-02-23T02:55:36;7.63;;;4.10;;
11960;SDS011;6040;49.358;11.140;2023-02-23T02:58:07;7.03;;;4.10;;
11960;SDS011;6040;49.358;11.140;2023-02-23T03:00:40;4.70;;;3.77;;
11960;SDS011;6040;49.358;11.140;2023-02-23T03:03:27;6.57;;;3.63;;
11960;SDS011;6040;49.358;11.140;2023-02-23T03:06:13;7.33;;;4.10;;
11960;SDS011;6040;49.358;11.140;2023-02-23T03:09:00;5.63;;;4.20;;
11960;SDS011;6040;49.358;11.140;2023-02-23T03:12:00;7.03;;;4.00;;
11960;SDS011;6040;49.358;11.140;2023-02-23T03:14:53;7.97;;;4.70;;
11960;SDS011;6040;49.358;11.140;2023-02-23T03:17:47;5.43;;;4.33;;
11960;SDS011;6040;49.358;11.140;2023-02-23T03:20:36;6.77;;;4.40;;
11960;SDS011;6040;49.358;11.140;2023-02-23T03:23:26;6.77;;;4.80;;
11960;SDS011;6040;49.358;11.140;2023-02-23T03:26:20;8.40;;;4.60;;
11960;SDS011;6040;49.358;11.140;2023-02-23T03:29:11;7.17;;;4.90;;
11960;SDS011;6040;49.358;11.140;2023-02-23T03:32:02;7.10;;;5.50;;
11960;SDS011;6040;49.358;11.140;2023-02-23T03:34:54;8.43;;;5.60;;
11960;SDS011;6040;49.358;11.140;2023-02-23T03:37:44;8.80;;;5.57;;
11960;SDS011;6040;49.358;11.140;2023-02-23T03:40:35;6.77;;;5.67;;
11960;SDS011;6040;49.358;11.140;2023-02-23T03:43:24;9.70;;;5.73;;
11960;SDS011;6040;49.358;11.140;2023-02-23T03:46:11;9.23;;;6.10;;
11960;SDS011;6040;49.358;11.140;2023-02-23T03:48:59;9.63;;;6.00;;
11960;SDS011;6040;49.358;11.140;2023-02-23T03:52:01;9.27;;;6.50;;
11960;SDS011;6040;49.358;11.140;2023-02-23T03:54:51;7.00;;;4.47;;
11960;SDS011;6040;49.358;11.140;2023-02-23T03:57:38;4.13;;;3.63;;
11960;SDS011;6040;49.358;11.140;2023-02-23T04:00:28;12.77;;;4.27;;
11960;SDS011;6040;49.358;11.140;2023-02-23T04:03:15;9.60;;;4.30;;
11960;SDS011;6040;49.358;11.140;2023-02-23T04:06:01;5.50;;;4.20;;
11960;SDS011;6040;49.358;11.140;2023-02-23T04:08:48;6.33;;;4.30;;
11960;SDS011;6040;49.358;11.140;2023-02-23T04:11:36;6.20;;;4.27;;
11960;SDS011;6040;49.358;11.140;2023-02-23T04:14:27;7.67;;;5.07;;
11960;SDS011;6040;49.358;11.140;2023-02-23T04:17:00;7.77;;;4.77;;
11960;SDS011;6040;49.358;11.140;2023-02-23T04:19:28;8.30;;;5.23;;
11960;SDS011;6040;49.358;11.140;2023-02-23T04:21:55;6.50;;;4.70;;
11960;SDS011;6040;49.358;11.140;2023-02-23T04:24:22;9.10;;;4.90;;
11960;SDS011;6040;49.358;11.140;2023-02-23T04:26:49;8.13;;;5.50;;
11960;SDS011;6040;49.358;11.140;2023-02-23T04:29:16;6.97;;;5.30;;
11960;SDS011;6040;49.358;11.140;2023-02-23T04:31:42;9.90;;;5.63;;
11960;SDS011;6040;49.358;11.140;2023-02-23T04:34:11;6.47;;;4.90;;
11960;SDS011;6040;49.358;11.140;2023-02-23T04:36:38;7.03;;;5.57;;
11960;SDS011;6040;49.358;11.140;2023-02-23T04:39:06;8.70;;;5.20;;
11960;SDS011;6040;49.358;11.140;2023-02-23T04:41:33;7.53;;;4.93;;
11960;SDS011;6040;49.358;11.140;2023-02-23T04:44:00;7.87;;;5.10;;
11960;SDS011;6040;49.358;11.140;2023-02-23T04:46:27;6.50;;;4.80;;
11960;SDS011;6040;49.358;11.140;2023-02-23T04:48:54;9.27;;;5.40;;
11960;SDS011;6040;49.358;11.140;2023-02-23T04:51:22;5.63;;;4.63;;
11960;SDS011;6040;49.358;11.140;2023-02-23T04:53:54;7.40;;;4.97;;
11960;SDS011;6040;49.358;11.140;2023-02-23T04:56:21;8.53;;;5.20;;
11960;SDS011;6040;49.358;11.140;2023-02-23T04:58:47;6.23;;;4.53;;
11960;SDS011;6040;49.358;11.140;2023-02-23T05:01:14;8.90;;;5.03;;
11960;SDS011;6040;49.358;11.140;2023-02-23T05:03:41;6.97;;;4.83;;
11960;SDS011;6040;49.358;11.140;2023-02-23T05:06:08;6.73;;;4.57;;
11960;SDS011;6040;49.358;11.140;2023-02-23T05:08:37;7.73;;;4.93;;
11960;SDS011;6040;49.358;11.140;2023-02-23T05:11:04;8.73;;;5.33;;
11960;SDS011;6040;49.358;11.140;2023-02-23T05:13:31;9.10;;;5.60;;
11960;SDS011;6040;49.358;11.140;2023-02-23T05:15:58;8.10;;;5.87;;
11960;SDS011;6040;49.358;11.140;2023-02-23T05:18:25;8.60;;;5.50;;
11960;SDS011;6040;49.358;11.140;2023-02-23T05:20:52;7.40;;;5.73;;
11960;SDS011;6040;49.358;11.140;2023-02-23T05:23:26;9.17;;;6.43;;
11960;SDS011;6040;49.358;11.140;2023-02-23T05:25:54;6.37;;;5.33;;
11960;SDS011;6040;49.358;11.140;2023-02-23T05:28:27;9.03;;;6.43;;
11960;SDS011;6040;49.358;11.140;2023-02-23T05:30:54;9.33;;;6.00;;
11960;SDS011;6040;49.358;11.140;2023-02-23T05:33:21;9.83;;;6.93;;
11960;SDS011;6040;49.358;11.140;2023-02-23T05:35:48;9.30;;;6.63;;
11960;SDS011;6040;49.358;11.140;2023-02-23T05:38:15;13.17;;;7.30;;
11960;SDS011;6040;49.358;11.140;2023-02-23T05:40:42;9.43;;;6.83;;
11960;SDS011;6040;49.358;11.140;2023-02-23T05:43:10;10.20;;;6.50;;
11960;SDS011;6040;49.358;11.140;2023-02-23T05:45:38;11.47;;;6.90;;
11960;SDS011;6040;49.358;11.140;2023-02-23T05:48:05;10.57;;;6.87;;
11960;SDS011;6040;49.358;11.140;2023-02-23T05:50:32;8.60;;;6.80;;
11960;SDS011;6040;49.358;11.140;2023-02-23T05:52:59;10.37;;;6.43;;
11960;SDS011;6040;49.358;11.140;2023-02-23T05:55:26;7.77;;;5.70;;
11960;SDS011;6040;49.358;11.140;2023-02-23T05:57:53;9.77;;;5.73;;
11960;SDS011;6040;49.358;11.140;2023-02-23T06:00:22;8.97;;;6.17;;
11960;SDS011;6040;49.358;11.140;2023-02-23T06:02:49;7.33;;;5.50;;
11960;SDS011;6040;49.358;11.140;2023-02-23T06:05:17;8.13;;;5.77;;
11960;SDS011;6040;49.358;11.140;2023-02-23T06:07:44;9.53;;;5.27;;
11960;SDS011;6040;49.358;11.140;2023-02-23T06:10:12;7.73;;;5.67;;
11960;SDS011;6040;49.358;11.140;2023-02-23T06:12:39;7.90;;;6.37;;
11960;SDS011;6040;49.358;11.140;2023-02-23T06:15:06;8.37;;;5.83;;
11960;SDS011;6040;49.358;11.140;2023-02-23T06:17:35;9.63;;;6.30;;
11960;SDS011;6040;49.358;11.140;2023-02-23T06:20:02;7.97;;;6.30;;
11960;SDS011;6040;49.358;11.140;2023-02-23T06:22:31;8.23;;;5.90;;
11960;SDS011;6040;49.358;11.140;2023-02-23T06:24:58;6.47;;;5.50;;
11960;SDS011;6040;49.358;11.140;2023-02-23T06:27:28;8.90;;;5.90;;
11960;SDS011;6040;49.358;11.140;2023-02-23T06:29:57;8.80;;;5.70;;
11960;SDS011;6040;49.358;11.140;2023-02-23T06:32:24;7.20;;;5.90;;
11960;SDS011;6040;49.358;11.140;2023-02-23T06:34:53;9.50;;;5.83;;
11960;SDS011;6040;49.358;11.140;2023-02-23T06:37:20;7.77;;;5.60;;
11960;SDS011;6040;49.358;11.140;2023-02-23T06:39:46;13.70;;;6.60;;
11960;SDS011;6040;49.358;11.140;2023-02-23T06:42:14;8.43;;;6.30;;
11960;SDS011;6040;49.358;11.140;2023-02-23T06:44:41;10.10;;;6.77;;
11960;SDS011;6040;49.358;11.140;2023-02-23T06:47:08;8.77;;;5.77;;
11960;SDS011;6040;49.358;11.140;2023-02-23T06:49:35;9.20;;;6.20;;
11960;SDS011;6040;49.358;11.140;2023-02-23T06:52:05;10.07;;;6.33;;
11960;SDS011;6040;49.358;11.140;2023-02-23T06:54:32;8.43;;;5.43;;
11960;SDS011;6040;49.358;11.140;2023-02-23T06:56:59;10.87;;;6.70;;
11960;SDS011;6040;49.358;11.140;2023-02-23T06:59:26;9.03;;;6.23;;
11960;SDS011;6040;49.358;11.140;2023-02-23T07:01:54;9.73;;;6.00;;
11960;SDS011;6040;49.358;11.140;2023-02-23T07:04:21;10.23;;;6.27;;
11960;SDS011;6040;49.358;11.140;2023-02-23T07:06:48;10.40;;;7.47;;
11960;SDS011;6040;49.358;11.140;2023-02-23T07:09:16;11.17;;;7.67;;
11960;SDS011;6040;49.358;11.140;2023-02-23T07:11:43;10.80;;;7.40;;
11960;SDS011;6040;49.358;11.140;2023-02-23T07:14:10;13.33;;;8.20;;
11960;SDS011;6040;49.358;11.140;2023-02-23T07:16:38;13.97;;;8.03;;
11960;SDS011;6040;49.358;11.140;2023-02-23T07:19:05;10.30;;;7.80;;
11960;SDS011;6040;49.358;11.140;2023-02-23T07:21:32;12.63;;;7.73;;
11960;SDS011;6040;49.358;11.140;2023-02-23T07:23:59;12.53;;;7.77;;
11960;SDS011;6040;49.358;11.140;2023-02-23T07:26:28;10.13;;;7.20;;
11960;SDS011;6040;49.358;11.140;2023-02-23T07:28:55;10.60;;;7.90;;
11960;SDS011;6040;49.358;11.140;2023-02-23T07:31:22;9.70;;;7.20;;
11960;SDS011;6040;49.358;11.140;2023-02-23T07:33:50;12.70;;;8.23;;
11960;SDS011;6040;49.358;11.140;2023-02-23T07:36:17;12.90;;;8.80;;
11960;SDS011;6040;49.358;11.140;2023-02-23T07:38:43;16.40;;;9.60;;
11960;SDS011;6040;49.358;11.140;2023-02-23T07:41:10;15.80;;;9.90;;
11960;SDS011;6040;49.358;11.140;2023-02-23T07:43:38;14.70;;;9.70;;
11960;SDS011;6040;49.358;11.140;2023-02-23T07:46:06;15.03;;;9.70;;
11960;SDS011;6040;49.358;11.140;2023-02-23T07:48:33;17.63;;;11.10;;
11960;SDS011;6040;49.358;11.140;2023-02-23T07:51:00;17.93;;;12.67;;
11960;SDS011;6040;49.358;11.140;2023-02-23T07:53:27;21.33;;;14.57;;
11960;SDS011;6040;49.358;11.140;2023-02-23T07:55:54;23.23;;;13.70;;
11960;SDS011;6040;49.358;11.140;2023-02-23T07:58:21;19.13;;;12.70;;
11960;SDS011;6040;49.358;11.140;2023-02-23T08:00:50;19.57;;;13.97;;
11960;SDS011;6040;49.358;11.140;2023-02-23T08:03:17;21.30;;;14.23;;
11960;SDS011;6040;49.358;11.140;2023-02-23T08:05:43;25.37;;;16.03;;
11960;SDS011;6040;49.358;11.140;2023-02-23T08:08:10;24.40;;;15.53;;
11960;SDS011;6040;49.358;11.140;2023-02-23T08:10:37;26.73;;;15.83;;
11960;SDS011;6040;49.358;11.140;2023-02-23T08:13:04;26.53;;;16.07;;
11960;SDS011;6040;49.358;11.140;2023-02-23T08:15:31;30.03;;;16.80;;
11960;SDS011;6040;49.358;11.140;2023-02-23T08:17:59;26.63;;;16.57;;
11960;SDS011;6040;49.358;11.140;2023-02-23T08:20:26;29.50;;;17.27;;
11960;SDS011;6040;49.358;11.140;2023-02-23T08:22:53;25.47;;;16.87;;
11960;SDS011;6040;49.358;11.140;2023-02-23T08:25:21;28.10;;;16.70;;
11960;SDS011;6040;49.358;11.140;2023-02-23T08:27:49;27.80;;;18.57;;
11960;SDS011;6040;49.358;11.140;2023-02-23T08:30:17;31.53;;;17.77;;
11960;SDS011;6040;49.358;11.140;2023-02-23T08:32:45;25.50;;;16.57;;
11960;SDS011;6040;49.358;11.140;2023-02-23T08:35:13;24.27;;;16.60;;
11960;SDS011;6040;49.358;11.140;2023-02-23T08:37:41;26.60;;;16.73;;
11960;SDS011;6040;49.358;11.140;2023-02-23T08:40:08;26.03;;;17.17;;
11960;SDS011;6040;49.358;11.140;2023-02-23T08:42:39;23.77;;;17.20;;
11960;SDS011;6040;49.358;11.140;2023-02-23T08:45:07;29.30;;;17.87;;
11960;SDS011;6040;49.358;11.140;2023-02-23T08:47:34;28.07;;;18.03;;
11960;SDS011;6040;49.358;11.140;2023-02-23T08:50:02;24.67;;;17.10;;
11960;SDS011;6040;49.358;11.140;2023-02-23T08:52:30;25.67;;;17.70;;
11960;SDS011;6040;49.358;11.140;2023-02-23T08:54:58;24.53;;;17.20;;
11960;SDS011;6040;49.358;11.140;2023-02-23T08:57:24;26.70;;;17.73;;
11960;SDS011;6040;49.358;11.140;2023-02-23T08:59:51;29.67;;;19.60;;
11960;SDS011;6040;49.358;11.140;2023-02-23T09:02:18;28.30;;;18.50;;
11960;SDS011;6040;49.358;11.140;2023-02-23T09:04:47;29.33;;;19.13;;
11960;SDS011;6040;49.358;11.140;2023-02-23T09:07:18;31.10;;;18.87;;
11960;SDS011;6040;49.358;11.140;2023-02-23T09:09:51;33.77;;;21.00;;
11960;SDS011;6040;49.358;11.140;2023-02-23T09:12:19;30.57;;;20.67;;
11960;SDS011;6040;49.358;11.140;2023-02-23T09:14:45;32.27;;;21.27;;
11960;SDS011;6040;49.358;11.140;2023-02-23T09:17:12;37.60;;;21.63;;
11960;SDS011;6040;49.358;11.140;2023-02-23T09:19:39;34.33;;;22.27;;
11960;SDS011;6040;49.358;11.140;2023-02-23T09:22:06;40.73;;;24.23;;
11960;SDS011;6040;49.358;11.140;2023-02-23T09:24:33;38.20;;;24.37;;
11960;SDS011;6040;49.358;11.140;2023-02-23T09:27:01;34.73;;;21.40;;
11960;SDS011;6040;49.358;11.140;2023-02-23T09:29:28;30.50;;;21.20;;
11960;SDS011;6040;49.358;11.140;2023-02-23T09:31:56;31.73;;;21.73;;
11960;SDS011;6040;49.358;11.140;2023-02-23T09:34:22;33.27;;;21.17;;
11960;SDS011;6040;49.358;11.140;2023-02-23T09:36:50;31.67;;;21.73;;
11960;SDS011;6040;49.358;11.140;2023-02-23T09:39:19;37.77;;;22.33;;
11960;SDS011;6040;49.358;11.140;2023-02-23T09:41:53;33.10;;;21.83;;
11960;SDS011;6040;49.358;11.140;2023-02-23T09:44:32;34.73;;;21.57;;
11960;SDS011;6040;49.358;11.140;2023-02-23T09:47:09;33.97;;;21.20;;
11960;SDS011;6040;49.358;11.140;2023-02-23T09:49:46;35.33;;;20.90;;
11960;SDS011;6040;49.358;11.140;2023-02-23T09:52:16;34.50;;;23.13;;
11960;SDS011;6040;49.358;11.140;2023-02-23T09:54:46;35.37;;;23.47;;
11960;SDS011;6040;49.358;11.140;2023-02-23T09:57:13;34.93;;;23.90;;
11960;SDS011;6040;49.358;11.140;2023-02-23T09:59:44;33.17;;;23.03;;
11960;SDS011;6040;49.358;11.140;2023-02-23T10:02:17;36.27;;;23.20;;
11960;SDS011;6040;49.358;11.140;2023-02-23T10:04:49;35.93;;;23.43;;
11960;SDS011;6040;49.358;11.140;2023-02-23T10:07:22;37.53;;;23.37;;
11960;SDS011;6040;49.358;11.140;2023-02-23T10:09:57;35.63;;;23.87;;
11960;SDS011;6040;49.358;11.140;2023-02-23T10:12:31;36.17;;;22.97;;
11960;SDS011;6040;49.358;11.140;2023-02-23T10:15:11;35.00;;;23.33;;
11960;SDS011;6040;49.358;11.140;2023-02-23T10:17:46;39.23;;;25.47;;
11960;SDS011;6040;49.358;11.140;2023-02-23T10:20:29;39.97;;;24.80;;
11960;SDS011;6040;49.358;11.140;2023-02-23T10:23:06;39.90;;;25.20;;
11960;SDS011;6040;49.358;11.140;2023-02-23T10:25:40;36.20;;;25.00;;
11960;SDS011;6040;49.358;11.140;2023-02-23T10:28:11;38.60;;;24.80;;
11960;SDS011;6040;49.358;11.140;2023-02-23T10:30:42;36.00;;;24.17;;
11960;SDS011;6040;49.358;11.140;2023-02-23T10:33:12;37.90;;;25.63;;
11960;SDS011;6040;49.358;11.140;2023-02-23T10:35:41;40.73;;;29.10;;
11960;SDS011;6040;49.358;11.140;2023-02-23T10:38:13;35.17;;;24.70;;
11960;SDS011;6040;49.358;11.140;2023-02-23T10:40:41;41.47;;;26.67;;
11960;SDS011;6040;49.358;11.140;2023-02-23T10:43:10;34.50;;;23.23;;
11960;SDS011;6040;49.358;11.140;2023-02-23T10:45:40;37.50;;;23.93;;
11960;SDS011;6040;49.358;11.140;2023-02-23T10:48:13;36.77;;;25.00;;
11960;SDS011;6040;49.358;11.140;2023-02-23T10:50:43;35.17;;;24.20;;
11960;SDS011;6040;49.358;11.140;2023-02-23T10:53:13;37.77;;;24.90;;
11960;SDS011;6040;49.358;11.140;2023-02-23T10:55:44;38.97;;;25.80;;
11960;SDS011;6040;49.358;11.140;2023-02-23T10:58:13;42.13;;;30.53;;
11960;SDS011;6040;49.358;11.140;2023-02-23T11:00:50;38.77;;;25.57;;
11960;SDS011;6040;49.358;11.140;2023-02-23T11:03:22;41.03;;;24.70;;
11960;SDS011;6040;49.358;11.140;2023-02-23T11:05:52;34.93;;;23.77;;
11960;SDS011;6040;49.358;11.140;2023-02-23T11:08:23;37.83;;;24.17;;
11960;SDS011;6040;49.358;11.140;2023-02-23T11:11:00;40.03;;;27.47;;
11960;SDS011;6040;49.358;11.140;2023-02-23T11:13:33;36.27;;;24.73;;
11960;SDS011;6040;49.358;11.140;2023-02-23T11:16:04;36.10;;;23.07;;
11960;SDS011;6040;49.358;11.140;2023-02-23T11:18:37;37.13;;;23.63;;
11960;SDS011;6040;49.358;11.140;2023-02-23T11:21:10;37.43;;;22.93;;
11960;SDS011;6040;49.358;11.140;2023-02-23T11:23:39;33.97;;;23.73;;
11960;SDS011;6040;49.358;11.140;2023-02-23T11:26:17;36.23;;;23.77;;
11960;SDS011;6040;49.358;11.140;2023-02-23T11:28:52;38.97;;;23.47;;
11960;SDS011;6040;49.358;11.140;2023-02-23T11:31:26;35.23;;;22.93;;
11960;SDS011;6040;49.358;11.140;2023-02-23T11:34:35;34.90;;;23.53;;
11960;SDS011;6040;49.358;11.140;2023-02-23T11:37:05;32.60;;;21.63;;
11960;SDS011;6040;49.358;11.140;2023-02-23T11:39:49;39.20;;;23.63;;
11960;SDS011;6040;49.358;11.140;2023-02-23T11:42:17;38.07;;;23.40;;
11960;SDS011;6040;49.358;11.140;2023-02-23T11:44:49;35.97;;;22.40;;
11960;SDS011;6040;49.358;11.140;2023-02-23T11:47:19;35.87;;;23.73;;
11960;SDS011;6040;49.358;11.140;2023-02-23T11:49:47;37.50;;;23.63;;
11960;SDS011;6040;49.358;11.140;2023-02-23T11:52:16;34.90;;;23.47;;
11960;SDS011;6040;49.358;11.140;2023-02-23T11:54:50;33.77;;;22.23;;
11960;SDS011;6040;49.358;11.140;2023-02-23T11:57:20;34.00;;;22.47;;
11960;SDS011;6040;49.358;11.140;2023-02-23T11:59:47;34.40;;;23.23;;
11960;SDS011;6040;49.358;11.140;2023-02-23T12:02:20;34.47;;;23.33;;
11960;SDS011;6040;49.358;11.140;2023-02-23T12:04:48;34.10;;;22.77;;
11960;SDS011;6040;49.358;11.140;2023-02-23T12:10:17;32.40;;;20.93;;
11960;SDS011;6040;49.358;11.140;2023-02-23T12:12:51;32.83;;;22.40;;
11960;SDS011;6040;49.358;11.140;2023-02-23T12:15:25;32.37;;;22.03;;
11960;SDS011;6040;49.358;11.140;2023-02-23T12:17:59;37.83;;;22.03;;
11960;SDS011;6040;49.358;11.140;2023-02-23T12:20:33;30.87;;;20.87;;
11960;SDS011;6040;49.358;11.140;2023-02-23T12:23:06;32.23;;;21.83;;
11960;SDS011;6040;49.358;11.140;2023-02-23T12:25:37;28.33;;;20.00;;
11960;SDS011;6040;49.358;11.140;2023-02-23T12:28:11;28.63;;;19.23;;
11960;SDS011;6040;49.358;11.140;2023-02-23T12:30:42;29.83;;;19.27;;
11960;SDS011;6040;49.358;11.140;2023-02-23T12:33:17;29.23;;;19.30;;
11960;SDS011;6040;49.358;11.140;2023-02-23T12:35:52;25.77;;;17.63;;
11960;SDS011;6040;49.358;11.140;2023-02-23T12:38:25;30.97;;;19.00;;
11960;SDS011;6040;49.358;11.140;2023-02-23T12:40:58;24.80;;;16.83;;
11960;SDS011;6040;49.358;11.140;2023-02-23T12:43:32;28.43;;;17.33;;
11960;SDS011;6040;49.358;11.140;2023-02-23T12:46:06;24.73;;;16.83;;
11960;SDS011;6040;49.358;11.140;2023-02-23T12:48:41;25.77;;;16.70;;
11960;SDS011;6040;49.358;11.140;2023-02-23T12:51:15;25.77;;;17.23;;
11960;SDS011;6040;49.358;11.140;2023-02-23T12:53:49;24.03;;;16.97;;
11960;SDS011;6040;49.358;11.140;2023-02-23T12:56:22;26.40;;;17.30;;
11960;SDS011;6040;49.358;11.140;2023-02-23T12:58:58;27.13;;;16.67;;
11960;SDS011;6040;49.358;11.140;2023-02-23T13:01:42;24.13;;;16.77;;
11960;SDS011;6040;49.358;11.140;2023-02-23T13:04:24;25.30;;;16.07;;
11960;SDS011;6040;49.358;11.140;2023-02-23T13:07:05;25.40;;;16.90;;
11960;SDS011;6040;49.358;11.140;2023-02-23T13:09:42;23.17;;;16.27;;
11960;SDS011;6040;49.358;11.140;2023-02-23T13:12:26;25.50;;;15.70;;
11960;SDS011;6040;49.358;11.140;2023-02-23T13:15:01;23.47;;;15.47;;
11960;SDS011;6040;49.358;11.140;2023-02-23T13:17:36;26.17;;;16.97;;
11960;SDS011;6040;49.358;11.140;2023-02-23T13:20:10;22.63;;;15.80;;
11960;SDS011;6040;49.358;11.140;2023-02-23T13:22:44;21.90;;;14.97;;
11960;SDS011;6040;49.358;11.140;2023-02-23T13:25:20;22.53;;;14.17;;
11960;SDS011;6040;49.358;11.140;2023-02-23T13:27:58;22.70;;;14.23;;
11960;SDS011;6040;49.358;11.140;2023-02-23T13:30:27;21.30;;;12.90;;
11960;SDS011;6040;49.358;11.140;2023-02-23T13:32:57;19.87;;;12.63;;
11960;SDS011;6040;49.358;11.140;2023-02-23T13:35:28;21.30;;;13.23;;
11960;SDS011;6040;49.358;11.140;2023-02-23T13:38:02;21.17;;;13.63;;
11960;SDS011;6040;49.358;11.140;2023-02-23T13:40:35;21.63;;;14.27;;
11960;SDS011;6040;49.358;11.140;2023-02-23T13:43:11;20.77;;;14.17;;
11960;SDS011;6040;49.358;11.140;2023-02-23T13:45:51;23.30;;;13.97;;
11960;SDS011;6040;49.358;11.140;2023-02-23T13:48:34;19.40;;;13.60;;
11960;SDS011;6040;49.358;11.140;2023-02-23T13:51:13;22.03;;;13.87;;
11960;SDS011;6040;49.358;11.140;2023-02-23T13:53:45;20.10;;;13.53;;
11960;SDS011;6040;49.358;11.140;2023-02-23T13:56:23;20.90;;;13.33;;
11960;SDS011;6040;49.358;11.140;2023-02-23T13:58:54;18.20;;;12.80;;
11960;SDS011;6040;49.358;11.140;2023-02-23T14:01:25;22.00;;;13.07;;
11960;SDS011;6040;49.358;11.140;2023-02-23T14:03:57;20.00;;;12.73;;
11960;SDS011;6040;49.358;11.140;2023-02-23T14:06:28;18.73;;;13.30;;
11960;SDS011;6040;49.358;11.140;2023-02-23T14:08:57;19.07;;;13.07;;
11960;SDS011;6040;49.358;11.140;2023-02-23T14:11:26;17.90;;;12.30;;
11960;SDS011;6040;49.358;11.140;2023-02-23T14:13:59;17.87;;;12.43;;
11960;SDS011;6040;49.358;11.140;2023-02-23T14:16:27;18.73;;;12.13;;
11960;SDS011;6040;49.358;11.140;2023-02-23T14:18:56;18.17;;;12.60;;
11960;SDS011;6040;49.358;11.140;2023-02-23T14:21:33;16.13;;;11.70;;
11960;SDS011;6040;49.358;11.140;2023-02-23T14:24:04;18.77;;;12.60;;
11960;SDS011;6040;49.358;11.140;2023-02-23T14:26:45;18.10;;;13.03;;
11960;SDS011;6040;49.358;11.140;2023-02-23T14:29:40;21.13;;;13.07;;
11960;SDS011;6040;49.358;11.140;2023-02-23T14:32:26;22.83;;;14.13;;
11960;SDS011;6040;49.358;11.140;2023-02-23T14:34:55;23.57;;;14.60;;
11960;SDS011;6040;49.358;11.140;2023-02-23T14:37:25;19.53;;;13.40;;
11960;SDS011;6040;49.358;11.140;2023-02-23T14:39:59;19.77;;;13.70;;
11960;SDS011;6040;49.358;11.140;2023-02-23T14:42:29;18.70;;;13.53;;
11960;SDS011;6040;49.358;11.140;2023-02-23T14:44:56;20.33;;;13.80;;
11960;SDS011;6040;49.358;11.140;2023-02-23T14:47:29;21.00;;;13.50;;
11960;SDS011;6040;49.358;11.140;2023-02-23T14:50:09;18.10;;;12.70;;
11960;SDS011;6040;49.358;11.140;2023-02-23T14:52:43;16.10;;;12.33;;
11960;SDS011;6040;49.358;11.140;2023-02-23T14:55:15;18.73;;;12.77;;
11960;SDS011;6040;49.358;11.140;2023-02-23T14:57:46;19.87;;;13.23;;
11960;SDS011;6040;49.358;11.140;2023-02-23T15:00:16;18.57;;;12.60;;
11960;SDS011;6040;49.358;11.140;2023-02-23T15:02:54;19.20;;;13.43;;
11960;SDS011;6040;49.358;11.140;2023-02-23T15:05:24;22.43;;;14.57;;
11960;SDS011;6040;49.358;11.140;2023-02-23T15:07:53;21.27;;;15.40;;
11960;SDS011;6040;49.358;11.140;2023-02-23T15:10:25;21.17;;;13.53;;
11960;SDS011;6040;49.358;11.140;2023-02-23T15:12:56;20.40;;;13.80;;
11960;SDS011;6040;49.358;11.140;2023-02-23T15:15:24;20.07;;;14.67;;